Time;durP1;ratioP1;P1;durP2;ratioP2;P2;SDS_P1;SDS_P2;PMS_P1;PMS_P2;Temp;Humidity;BMP_temperature;BMP_pressure;BME280_temperature;BME280_humidity;BME280_pressure;Samples;Min_cycle;Max_cycle;Signal;HPM_P1;HPM_P2
2021/08/09 00:01:37;;;;;;;1.13;0.90;;;;;;;23.76;47.16;98483.53;5001427;28;20208;-91
2021/08/09 00:04:05;;;;;;;0.90;0.90;;;;;;;23.67;47.39;98491.69;5001607;28;20635;-91
2021/08/09 00:06:31;;;;;;;1.07;0.80;;;;;;;23.66;47.47;98498.03;5001176;28;20201;-92
2021/08/09 00:09:02;;;;;;;0.77;0.77;;;;;;;23.64;47.39;98494.75;5017417;28;20647;-91
2021/08/09 00:11:30;;;;;;;0.80;0.70;;;;;;;23.65;47.53;98503.56;5017335;28;20201;-91
2021/08/09 00:13:57;;;;;;;1.20;0.80;;;;;;;23.66;47.30;98494.53;5017624;28;20201;-92
2021/08/09 00:16:23;;;;;;;1.13;0.90;;;;;;;23.65;47.45;98484.91;5034735;28;20186;-91
2021/08/09 00:18:50;;;;;;;0.87;0.73;;;;;;;23.63;47.49;98489.59;5017524;28;20194;-92
2021/08/09 00:21:18;;;;;;;0.93;0.90;;;;;;;23.65;47.40;98487.56;5034692;28;20225;-92
2021/08/09 00:23:45;;;;;;;3.13;1.10;;;;;;;23.69;47.39;98486.16;5017441;28;20192;-92
2021/08/09 00:26:11;;;;;;;0.70;0.70;;;;;;;23.66;47.50;98489.22;5017464;28;20190;-92
2021/08/09 00:28:38;;;;;;;0.70;0.70;;;;;;;23.68;47.43;98492.50;5000980;28;20205;-91
2021/08/09 00:31:07;;;;;;;0.90;0.90;;;;;;;23.74;47.06;98497.06;5017210;28;20194;-92
2021/08/09 00:33:35;;;;;;;0.90;0.90;;;;;;;23.73;47.24;98490.09;5001175;28;20213;-92
2021/08/09 00:36:03;;;;;;;0.70;0.70;;;;;;;23.72;47.33;98488.47;5017161;28;20194;-92
2021/08/09 00:38:33;;;;;;;0.90;0.80;;;;;;;23.76;47.11;98494.19;5033848;28;20221;-92
2021/08/09 00:41:00;;;;;;;0.90;0.70;;;;;;;23.78;46.81;98485.00;5000725;28;20210;-92
2021/08/09 00:43:27;;;;;;;0.93;0.83;;;;;;;23.77;46.99;98488.69;5018088;28;20195;-92
2021/08/09 00:45:54;;;;;;;0.80;0.80;;;;;;;23.76;47.10;98481.72;5017223;28;20229;-92
2021/08/09 00:48:20;;;;;;;0.80;0.80;;;;;;;23.72;47.13;98482.28;5033456;28;20204;-92
2021/08/09 00:50:47;;;;;;;0.90;0.90;;;;;;;23.63;47.12;98487.75;5000870;28;20248;-92
2021/08/09 00:53:14;;;;;;;1.50;1.03;;;;;;;23.63;47.30;98484.28;5000807;28;20586;-92
2021/08/09 00:55:42;;;;;;;0.80;0.80;;;;;;;23.66;47.25;98483.88;5019825;28;20228;-92
2021/08/09 00:58:11;;;;;;;0.83;0.83;;;;;;;23.64;47.06;98485.94;5021207;28;20197;-92
2021/08/09 01:00:38;;;;;;;0.80;0.80;;;;;;;23.66;47.13;98483.88;5020816;28;20214;-92
2021/08/09 01:03:05;;;;;;;1.13;0.80;;;;;;;23.65;47.17;98483.09;5004731;28;20194;-92
2021/08/09 01:05:33;;;;;;;0.83;0.83;;;;;;;23.69;47.22;98486.16;5020969;28;20681;-92
2021/08/09 01:08:00;;;;;;;0.80;0.80;;;;;;;23.71;46.98;98486.78;5004738;28;20651;-92
2021/08/09 01:10:31;;;;;;;0.80;0.80;;;;;;;23.77;46.76;98487.84;5021539;28;20259;-92
2021/08/09 01:13:22;;;;;;;1.00;0.90;;;;;;;23.77;46.94;98488.69;5006394;28;20192;-92
2021/08/09 01:15:56;;;;;;;0.80;0.70;;;;;;;23.73;46.90;98490.09;5042508;28;20258;-92
2021/08/09 01:18:29;;;;;;;1.10;0.80;;;;;;;23.72;47.01;98499.13;5011441;28;20515;-92
2021/08/09 01:20:59;;;;;;;0.90;0.90;;;;;;;23.73;46.62;98500.75;5004740;28;20206;-92
2021/08/09 01:23:45;;;;;;;0.93;0.70;;;;;;;23.72;46.81;98496.44;5020787;28;20251;-92
2021/08/09 01:26:31;;;;;;;0.70;0.70;;;;;;;23.71;46.92;98494.78;5004330;28;20194;-92
2021/08/09 01:28:59;;;;;;;0.73;0.70;;;;;;;23.70;46.86;98501.13;5020569;28;20277;-92
2021/08/09 01:31:36;;;;;;;1.17;0.80;;;;;;;23.70;46.79;98502.97;5020452;28;20182;-92
2021/08/09 01:34:04;;;;;;;0.77;0.77;;;;;;;23.67;46.85;98501.53;5020385;28;20223;-92
2021/08/09 01:36:32;;;;;;;0.70;0.70;;;;;;;23.66;46.96;98510.53;5020297;28;20204;-92
2021/08/09 01:39:01;;;;;;;0.80;0.80;;;;;;;23.71;46.99;98504.63;5004013;28;20564;-92
2021/08/09 01:41:29;;;;;;;0.80;0.80;;;;;;;23.70;46.88;98500.31;5020332;28;20309;-92
2021/08/09 01:43:56;;;;;;;0.70;0.70;;;;;;;23.70;46.97;98500.31;5004218;28;20198;-92
2021/08/09 01:46:24;;;;;;;0.70;0.70;;;;;;;23.66;46.93;98507.88;5020192;28;20516;-92
2021/08/09 01:48:52;;;;;;;1.67;0.80;;;;;;;23.63;47.15;98503.72;5020146;28;20287;-92
2021/08/09 01:51:20;;;;;;;1.07;0.90;;;;;;;23.63;46.80;98505.59;5019966;28;20221;-92
2021/08/09 01:53:47;;;;;;;0.80;0.80;;;;;;;23.63;47.15;98501.06;5003714;28;20200;-92
2021/08/09 01:56:15;;;;;;;0.90;0.90;;;;;;;23.62;47.15;98498.63;5003616;28;20603;-92
2021/08/09 01:58:42;;;;;;;0.90;0.80;;;;;;;23.62;46.92;98498.63;5003732;28;20584;-92
2021/08/09 02:01:09;;;;;;;1.20;0.87;;;;;;;23.65;46.99;98487.56;5020088;28;20218;-92
2021/08/09 02:03:36;;;;;;;0.70;0.70;;;;;;;23.60;47.12;98487.34;5003472;28;20229;-92
2021/08/09 02:06:03;;;;;;;0.97;0.80;;;;;;;23.59;47.01;98489.16;5002466;28;20198;-92
2021/08/09 02:08:30;;;;;;;0.80;0.67;;;;;;;23.60;46.92;98482.81;5019517;28;20206;-92
2021/08/09 02:11:05;;;;;;;0.80;0.80;;;;;;;23.58;47.26;98494.72;5004035;28;20194;-92
2021/08/09 02:13:32;;;;;;;0.83;0.77;;;;;;;23.57;46.98;98490.41;5019598;28;20186;-92
2021/08/09 02:16:15;;;;;;;0.70;0.70;;;;;;;23.53;47.16;98490.75;5003477;28;20604;-92
2021/08/09 02:19:10;;;;;;;0.77;0.77;;;;;;;23.50;47.35;98496.47;5005003;28;20553;-92
2021/08/09 02:21:47;;;;;;;0.80;0.80;;;;;;;23.51;47.17;98492.00;5003457;28;20556;-92
2021/08/09 02:24:20;;;;;;;0.70;0.70;;;;;;;23.49;47.16;98489.50;5003097;28;20287;-92
2021/08/09 02:26:57;;;;;;;0.60;0.53;;;;;;;23.48;47.54;98493.19;5019651;28;20487;-92
2021/08/09 02:29:32;;;;;;;0.70;0.70;;;;;;;23.51;47.11;98490.13;5035781;28;20298;-92
2021/08/09 02:32:04;;;;;;;0.73;0.73;;;;;;;23.55;47.05;98495.91;5003243;28;20220;-92
2021/08/09 02:34:33;;;;;;;0.73;0.73;;;;;;;23.53;46.96;98496.09;5003262;28;20244;-92
2021/08/09 02:37:05;;;;;;;0.60;0.60;;;;;;;23.51;47.32;98492.78;5020785;28;20196;-92
2021/08/09 02:39:32;;;;;;;0.60;0.60;;;;;;;23.47;47.11;98486.22;5022080;28;20202;-92
2021/08/09 02:42:00;;;;;;;0.70;0.70;;;;;;;23.47;47.04;98477.38;5022722;28;20233;-92
2021/08/09 02:44:29;;;;;;;0.60;0.60;;;;;;;23.46;47.15;98492.56;5008539;28;20194;-92
2021/08/09 02:46:58;;;;;;;0.80;0.63;;;;;;;23.49;47.20;98496.69;5019466;28;20293;-92
2021/08/09 02:49:25;;;;;;;0.80;0.80;;;;;;;23.47;47.26;98499.53;5018756;28;20222;-90
2021/08/09 02:51:54;;;;;;;0.80;0.80;;;;;;;23.49;47.27;98494.84;5019779;28;20212;-90
2021/08/09 02:54:21;;;;;;;0.80;0.80;;;;;;;23.49;46.96;98494.84;5020004;28;20229;-90
2021/08/09 02:56:50;;;;;;;0.87;0.80;;;;;;;23.48;47.14;98490.53;5019012;28;20575;-92
2021/08/09 02:59:17;;;;;;;0.80;0.80;;;;;;;23.49;47.14;98494.03;5035536;28;20626;-91
2021/08/09 03:01:45;;;;;;;0.80;0.80;;;;;;;23.49;47.09;98500.16;5035337;28;20222;-91
2021/08/09 03:04:15;;;;;;;0.70;0.70;;;;;;;23.47;46.99;98496.88;5004853;28;20194;-91
2021/08/09 03:06:43;;;;;;;0.80;0.80;;;;;;;23.47;47.04;98499.53;5043444;28;20197;-91
2021/08/09 03:09:09;;;;;;;0.80;0.80;;;;;;;23.46;47.15;98502.38;5018704;28;20210;-91
2021/08/09 03:11:39;;;;;;;0.70;0.70;;;;;;;23.48;46.87;98492.34;5034948;28;20198;-91
2021/08/09 03:14:06;;;;;;;0.60;0.60;;;;;;;23.47;47.08;98501.34;5002187;28;20201;-91
2021/08/09 03:16:35;;;;;;;0.97;0.70;;;;;;;23.47;46.80;98510.19;5018337;28;20201;-91
2021/08/09 03:19:02;;;;;;;0.50;0.50;;;;;;;23.39;47.41;98502.31;5018216;28;20209;-91
2021/08/09 03:21:29;;;;;;;0.80;0.80;;;;;;;23.39;47.24;98497.81;5018387;28;20214;-91
2021/08/09 03:23:56;;;;;;;1.67;0.80;;;;;;;23.41;47.19;98500.31;5018480;28;20580;-91
2021/08/09 03:26:23;;;;;;;0.60;0.60;;;;;;;23.38;47.37;98508.66;5018271;28;20590;-91
2021/08/09 03:28:49;;;;;;;0.60;0.60;;;;;;;23.34;47.20;98500.25;5018146;28;20201;-91
2021/08/09 03:31:16;;;;;;;0.70;0.70;;;;;;;23.33;47.45;98495.94;5018291;28;20200;-91
2021/08/09 03:33:43;;;;;;;0.50;0.50;;;;;;;23.33;47.56;98506.59;5018248;28;20290;-91
2021/08/09 03:36:10;;;;;;;1.50;0.80;;;;;;;23.32;47.22;98504.94;5018030;28;20194;-91
2021/08/09 03:38:36;;;;;;;0.77;0.60;;;;;;;23.30;47.38;98492.84;5018075;28;20194;-91
2021/08/09 03:41:03;;;;;;;1.00;0.70;;;;;;;23.30;47.52;98500.81;5001531;28;20309;-91
2021/08/09 03:43:30;;;;;;;0.60;0.60;;;;;;;23.29;47.32;98493.84;5018188;28;20201;-91
2021/08/09 03:45:56;;;;;;;0.57;0.57;;;;;;;23.34;47.40;98497.59;5017935;28;20202;-91
2021/08/09 03:48:23;;;;;;;0.60;0.60;;;;;;;23.25;47.44;98491.53;5017736;28;20191;-91
2021/08/09 03:50:50;;;;;;;0.50;0.50;;;;;;;23.27;47.50;98493.22;5001589;28;20205;-91
2021/08/09 03:53:16;;;;;;;0.53;0.53;;;;;;;23.25;47.45;98486.22;5017935;28;20204;-91
2021/08/09 03:55:43;;;;;;;1.97;0.60;;;;;;;23.27;47.53;98485.22;5001635;28;20210;-91
2021/08/09 03:58:10;;;;;;;1.90;0.60;;;;;;;23.27;47.32;98487.91;5018044;28;20710;-91
2021/08/09 04:00:37;;;;;;;0.63;0.60;;;;;;;23.38;47.03;98482.03;5017918;28;20651;-91
2021/08/09 04:03:04;;;;;;;0.60;0.60;;;;;;;23.28;47.44;98486.88;5017893;28;20281;-91
2021/08/09 04:05:36;;;;;;;0.60;0.60;;;;;;;23.24;47.48;98484.56;5002555;28;20194;-90
2021/08/09 04:08:03;;;;;;;0.70;0.70;;;;;;;23.23;47.52;98484.75;5017617;28;20696;-91
2021/08/09 04:10:30;;;;;;;0.70;0.70;;;;;;;23.18;47.54;98498.63;5017977;28;20193;-91
2021/08/09 04:12:57;;;;;;;0.60;0.60;;;;;;;23.17;47.59;98494.31;5018609;28;20197;-91
2021/08/09 04:15:25;;;;;;;0.70;0.70;;;;;;;23.15;47.62;98495.50;5003741;28;20174;-90
2021/08/09 04:17:52;;;;;;;0.93;0.80;;;;;;;23.13;47.69;98498.38;5035776;28;20201;-91
2021/08/09 04:20:19;;;;;;;0.70;0.70;;;;;;;23.13;47.73;98503.72;5031890;28;20643;-90
2021/08/09 04:22:45;;;;;;;0.50;0.50;;;;;;;23.20;47.44;98496.59;5017980;28;20198;-90
2021/08/09 04:25:13;;;;;;;0.50;0.50;;;;;;;23.23;47.33;98498.88;5002003;28;20209;-90
2021/08/09 04:27:39;;;;;;;0.87;0.70;;;;;;;23.29;47.21;98493.84;5017442;28;20201;-90
2021/08/09 04:30:07;;;;;;;0.70;0.70;;;;;;;23.29;47.31;98499.97;5000575;28;20194;-90
2021/08/09 04:32:41;;;;;;;0.60;0.60;;;;;;;23.30;47.24;98498.97;5033801;28;20200;-90
2021/08/09 04:35:12;;;;;;;0.60;0.60;;;;;;;23.29;47.38;98505.31;5017154;28;20186;-91
2021/08/09 04:37:42;;;;;;;0.60;0.60;;;;;;;23.29;47.07;98512.50;5002166;28;20199;-90
2021/08/09 04:40:10;;;;;;;0.70;0.70;;;;;;;23.30;47.17;98519.47;5017446;28;20190;-91
2021/08/09 04:42:38;;;;;;;1.47;0.73;;;;;;;23.28;47.27;98519.63;5001837;28;20252;-90
2021/08/09 04:45:06;;;;;;;0.80;0.80;;;;;;;23.33;47.09;98519.06;5018167;28;20197;-91
2021/08/09 04:47:34;;;;;;;1.17;0.60;;;;;;;23.42;46.96;98517.09;5001871;28;20228;-91
2021/08/09 04:50:00;;;;;;;0.73;0.70;;;;;;;23.46;46.80;98519.19;5001209;28;20197;-91
2021/08/09 04:52:29;;;;;;;0.70;0.70;;;;;;;23.44;47.03;98505.25;5017244;28;20514;-91
2021/08/09 04:54:55;;;;;;;0.60;0.60;;;;;;;23.32;47.24;98509.44;5017389;28;20209;-91
2021/08/09 04:57:22;;;;;;;0.60;0.60;;;;;;;23.34;47.08;98515.38;5017037;28;20232;-91
2021/08/09 04:59:49;;;;;;;0.60;0.60;;;;;;;23.52;46.56;98523.75;5017394;28;20193;-91
2021/08/09 05:02:16;;;;;;;0.70;0.70;;;;;;;23.58;46.46;98521.34;5017799;28;20626;-91
2021/08/09 05:04:43;;;;;;;0.70;0.60;;;;;;;23.57;46.50;98525.03;5017245;28;20214;-91
2021/08/09 05:07:09;;;;;;;0.80;0.60;;;;;;;23.62;46.19;98525.25;5001320;28;20291;-91
2021/08/09 05:09:36;;;;;;;0.57;0.57;;;;;;;23.69;46.38;98528.78;5006862;28;20209;-91
2021/08/09 05:12:03;;;;;;;0.80;0.80;;;;;;;23.75;46.18;98536.03;5011940;28;20209;-91
2021/08/09 05:14:34;;;;;;;0.60;0.60;;;;;;;23.73;46.00;98527.41;5017974;28;20224;-91
2021/08/09 05:17:01;;;;;;;1.03;0.50;;;;;;;23.76;46.17;98531.50;5017320;28;20202;-91
2021/08/09 05:19:28;;;;;;;0.67;0.67;;;;;;;23.78;45.94;98526.81;5000642;28;20194;-91
2021/08/09 05:21:59;;;;;;;2.37;0.77;;;;;;;23.85;45.87;98518.84;5033553;28;20210;-91
2021/08/09 05:24:26;;;;;;;0.90;0.60;;;;;;;23.87;45.66;98514.16;5017159;28;20204;-91
2021/08/09 05:26:55;;;;;;;1.13;0.70;;;;;;;23.92;45.70;98517.06;5000534;28;20219;-91
2021/08/09 05:29:22;;;;;;;0.50;0.50;;;;;;;23.85;46.07;98513.53;5016829;28;20202;-91
2021/08/09 05:31:49;;;;;;;0.77;0.77;;;;;;;23.85;46.03;98513.53;5001308;28;20197;-92
2021/08/09 05:34:16;;;;;;;0.77;0.70;;;;;;;23.85;46.05;98518.84;5000991;28;20205;-92
2021/08/09 05:36:44;;;;;;;0.70;0.70;;;;;;;23.88;45.99;98515.78;5017180;28;20202;-91
2021/08/09 05:39:12;;;;;;;0.63;0.63;;;;;;;23.89;46.07;98520.13;5000966;28;20243;-90
2021/08/09 05:41:38;;;;;;;3.60;1.17;;;;;;;23.85;45.51;98524.19;5017538;28;20249;-91
2021/08/09 05:44:06;;;;;;;2.47;1.00;;;;;;;23.65;44.83;98514.22;5004228;28;20194;-91
2021/08/09 05:46:35;;;;;;;4.30;1.00;;;;;;;23.43;44.76;98508.94;5005273;28;20348;-91
2021/08/09 05:49:04;;;;;;;1.50;1.10;;;;;;;23.32;44.67;98509.44;5036976;28;20194;-91
2021/08/09 05:51:37;;;;;;;1.73;1.20;;;;;;;23.24;44.75;98505.03;5003990;28;20199;-91
2021/08/09 05:54:04;;;;;;;1.20;0.93;;;;;;;23.15;44.76;98500.84;5020752;28;20209;-91
2021/08/09 05:56:31;;;;;;;3.07;1.23;;;;;;;23.13;44.55;98501.03;5020113;28;20190;-92
2021/08/09 05:59:01;;;;;;;1.73;0.93;;;;;;;23.10;44.34;98512.88;5020509;28;20281;-90
2021/08/09 06:01:28;;;;;;;3.93;1.13;;;;;;;23.08;44.66;98514.13;5003893;28;20750;-91
2021/08/09 06:03:55;;;;;;;5.37;1.20;;;;;;;23.11;44.54;98519.06;5020060;28;20205;-90
2021/08/09 06:06:23;;;;;;;5.67;1.20;;;;;;;23.13;44.65;98521.50;5020220;28;20513;-90
2021/08/09 06:08:57;;;;;;;2.67;1.00;;;;;;;23.14;44.76;98518.66;5020509;28;20546;-90
2021/08/09 06:11:23;;;;;;;1.70;1.10;;;;;;;23.22;44.68;98528.38;5003747;28;20196;-90
2021/08/09 06:13:52;;;;;;;1.93;1.20;;;;;;;23.22;44.87;98528.38;5020042;28;20276;-90
2021/08/09 06:16:19;;;;;;;4.30;1.37;;;;;;;23.25;44.82;98535.97;5020287;28;20208;-90
2021/08/09 06:18:46;;;;;;;1.80;1.10;;;;;;;23.32;44.77;98534.25;5020420;28;20190;-89
2021/08/09 06:21:12;;;;;;;2.07;1.00;;;;;;;23.37;44.73;98533.63;5003766;28;20213;-90
2021/08/09 06:23:41;;;;;;;1.50;1.07;;;;;;;23.41;44.63;98534.09;5004006;28;20205;-90
2021/08/09 06:26:12;;;;;;;2.77;1.37;;;;;;;23.45;44.57;98540.69;5036386;28;20607;-89
2021/08/09 06:28:38;;;;;;;1.20;1.00;;;;;;;23.50;44.70;98543.59;5036265;28;20194;-89
2021/08/09 06:31:06;;;;;;;1.70;1.20;;;;;;;23.51;44.86;98540.75;5003512;28;20190;-89
2021/08/09 06:33:33;;;;;;;1.13;1.03;;;;;;;23.51;44.84;98546.06;5019334;28;20525;-89
2021/08/09 06:36:00;;;;;;;2.70;1.23;;;;;;;23.52;45.07;98542.38;5002888;28;20256;-89
2021/08/09 06:38:28;;;;;;;1.20;1.03;;;;;;;23.45;45.33;98536.19;5002862;28;20194;-89
2021/08/09 06:40:54;;;;;;;2.03;1.23;;;;;;;23.50;45.36;98544.41;5018775;28;20196;-89
2021/08/09 06:43:23;;;;;;;1.93;1.07;;;;;;;23.59;45.10;98537.13;5035721;28;20198;-89
2021/08/09 06:45:52;;;;;;;1.10;1.00;;;;;;;23.64;45.29;98544.53;5035358;28;20576;-89
2021/08/09 06:48:21;;;;;;;4.07;1.20;;;;;;;23.71;45.11;98541.94;5002683;28;20194;-88
2021/08/09 06:50:48;;;;;;;2.07;0.90;;;;;;;23.82;44.86;98536.88;5002697;28;20537;-88
2021/08/09 06:53:16;;;;;;;2.07;1.03;;;;;;;23.90;44.86;98548.44;5002136;28;20252;-89
2021/08/09 06:55:45;;;;;;;2.20;1.13;;;;;;;23.84;45.04;98543.84;5018970;28;20538;-89
2021/08/09 06:58:13;;;;;;;1.20;1.00;;;;;;;23.85;45.00;98541.00;5018659;28;20212;-89
2021/08/09 07:00:40;;;;;;;1.37;0.90;;;;;;;23.89;45.11;98541.47;5002817;28;20280;-88
2021/08/09 07:03:09;;;;;;;2.50;0.93;;;;;;;23.90;45.01;98530.59;5018726;28;20643;-89
2021/08/09 07:05:42;;;;;;;1.70;1.00;;;;;;;23.94;44.81;98529.16;5002631;28;20236;-90
2021/08/09 07:08:11;;;;;;;2.03;0.63;;;;;;;23.98;44.96;98526.94;5025641;28;20235;-90
2021/08/09 07:10:39;;;;;;;1.60;0.90;;;;;;;23.94;45.12;98520.38;5021642;28;20284;-89
2021/08/09 07:13:07;;;;;;;1.57;1.00;;;;;;;23.97;45.26;98522.63;5021775;28;20632;-90
2021/08/09 07:15:34;;;;;;;1.47;0.97;;;;;;;24.02;45.14;98524.72;5022673;28;20205;-91
2021/08/09 07:18:01;;;;;;;1.27;0.90;;;;;;;24.03;45.11;98524.53;5021466;28;20202;-91
2021/08/09 07:20:28;;;;;;;3.43;1.00;;;;;;;23.98;45.21;98524.28;5037818;28;20202;-91
2021/08/09 07:22:56;;;;;;;1.00;0.80;;;;;;;24.02;45.37;98528.22;5037770;28;20214;-91
2021/08/09 07:25:23;;;;;;;1.33;1.10;;;;;;;24.02;45.16;98525.56;5038231;28;20258;-91
2021/08/09 07:27:50;;;;;;;0.80;0.80;;;;;;;23.96;45.28;98526.31;5038019;28;20204;-91
2021/08/09 07:30:18;;;;;;;1.20;0.80;;;;;;;23.92;45.51;98530.41;5037487;28;20193;-90
2021/08/09 07:32:48;;;;;;;1.87;0.83;;;;;;;23.91;45.52;98526.91;5035897;28;20194;-90
2021/08/09 07:35:14;;;;;;;1.80;0.83;;;;;;;23.87;45.60;98533.66;5037961;28;20634;-89
2021/08/09 07:37:42;;;;;;;1.97;0.90;;;;;;;23.81;45.63;98532.56;5037468;28;20251;-90
2021/08/09 07:40:09;;;;;;;0.80;0.80;;;;;;;23.84;45.45;98526.03;5037687;28;20189;-90
2021/08/09 07:42:36;;;;;;;1.20;0.83;;;;;;;23.79;45.74;98528.44;5021268;28;20538;-90
2021/08/09 07:45:04;;;;;;;1.67;0.77;;;;;;;23.77;45.94;98531.31;5036666;28;20212;-90
2021/08/09 07:47:30;;;;;;;1.20;0.80;;;;;;;23.76;46.17;98521.69;5036336;28;20500;-90
2021/08/09 07:50:00;;;;;;;1.63;0.73;;;;;;;23.73;45.91;98524.75;5020976;28;20193;-90
2021/08/09 07:52:27;;;;;;;1.33;0.87;;;;;;;23.72;46.17;98520.44;5021809;28;20200;-91
2021/08/09 07:54:55;;;;;;;2.67;0.80;;;;;;;23.76;46.06;98518.19;5038748;28;20233;-91
2021/08/09 07:57:22;;;;;;;0.90;0.90;;;;;;;23.72;45.87;98520.44;5022318;28;20197;-91
2021/08/09 07:59:50;;;;;;;1.03;0.80;;;;;;;23.71;46.38;98525.94;5025409;28;20236;-90
2021/08/09 08:02:16;;;;;;;0.77;0.77;;;;;;;23.74;46.14;98525.53;5038239;28;20236;-91
2021/08/09 08:04:43;;;;;;;1.47;0.90;;;;;;;23.74;46.08;98522.88;5035083;28;20225;-91
2021/08/09 08:07:10;;;;;;;0.90;0.80;;;;;;;23.76;46.26;98529.69;5023649;28;20643;-91
2021/08/09 08:09:37;;;;;;;1.40;0.90;;;;;;;23.75;46.12;98530.69;5037398;28;20201;-91
2021/08/09 08:12:04;;;;;;;1.37;0.70;;;;;;;23.77;46.02;98526.00;5037782;28;20260;-91
2021/08/09 08:14:33;;;;;;;1.33;1.00;;;;;;;23.79;46.09;98525.78;5022399;28;20610;-91
2021/08/09 08:17:00;;;;;;;1.13;0.70;;;;;;;23.78;45.95;98529.47;5021634;28;20197;-91
2021/08/09 08:19:27;;;;;;;0.60;0.60;;;;;;;23.79;46.03;98531.94;5037628;28;20267;-91
2021/08/09 08:21:53;;;;;;;0.80;0.77;;;;;;;23.78;45.87;98522.31;5037158;28;20244;-90
2021/08/09 08:24:21;;;;;;;0.80;0.80;;;;;;;23.79;46.00;98529.28;5021321;28;20204;-90
2021/08/09 08:26:48;;;;;;;0.60;0.60;;;;;;;23.85;46.12;98526.84;5021295;28;20657;-92
2021/08/09 08:29:15;;;;;;;0.83;0.73;;;;;;;23.88;45.96;98534.44;5036978;28;20197;-90
2021/08/09 08:31:44;;;;;;;0.90;0.80;;;;;;;23.89;45.66;98530.78;5037151;28;20186;-91
2021/08/09 08:34:11;;;;;;;0.80;0.80;;;;;;;23.93;45.88;98532.84;5037347;28;20212;-90
2021/08/09 08:36:38;;;;;;;0.70;0.70;;;;;;;23.95;45.52;98520.16;5037258;28;20197;-91
2021/08/09 08:39:06;;;;;;;0.73;0.73;;;;;;;23.96;45.60;98532.50;5037108;28;20215;-90
2021/08/09 08:41:34;;;;;;;0.80;0.80;;;;;;;24.03;45.43;98545.06;5020945;28;20677;-90
2021/08/09 08:44:01;;;;;;;0.83;0.63;;;;;;;24.05;45.42;98537.69;5020820;28;20255;-90
2021/08/09 08:46:29;;;;;;;0.90;0.60;;;;;;;24.04;45.34;98544.84;5037641;28;20193;-92
2021/08/09 08:48:58;;;;;;;0.70;0.70;;;;;;;24.10;45.37;98549.41;5020480;28;20645;-91
2021/08/09 08:51:26;;;;;;;1.07;0.80;;;;;;;24.17;45.34;98537.94;5037615;28;20208;-92
2021/08/09 08:53:54;;;;;;;0.83;0.80;;;;;;;24.21;45.15;98548.03;5037177;28;20284;-91
2021/08/09 08:56:21;;;;;;;0.70;0.70;;;;;;;24.24;45.19;98542.31;5036911;28;20197;-90
2021/08/09 08:58:48;;;;;;;0.70;0.67;;;;;;;24.29;45.06;98548.91;5036951;28;20189;-90
2021/08/09 09:01:34;;;;;;;1.13;0.60;;;;;;;24.31;45.03;98537.00;5037049;28;20221;-90
2021/08/09 09:04:21;;;;;;;0.70;0.70;;;;;;;24.32;45.09;98535.19;5037068;28;20190;-90
2021/08/09 09:07:02;;;;;;;0.80;0.80;;;;;;;24.34;44.93;98525.94;5036828;28;20508;-89
2021/08/09 09:09:38;;;;;;;0.90;0.80;;;;;;;24.36;44.81;98529.22;5020805;28;20267;-88
2021/08/09 09:12:16;;;;;;;0.93;0.90;;;;;;;24.36;44.97;98528.41;5036991;28;20173;-90
2021/08/09 09:14:43;;;;;;;1.00;0.70;;;;;;;24.34;45.09;98523.28;5036747;28;20185;-89
2021/08/09 09:17:10;;;;;;;0.73;0.73;;;;;;;24.31;44.98;98529.00;5024577;28;20201;-89
2021/08/09 09:19:38;;;;;;;0.70;0.70;;;;;;;24.28;44.94;98529.41;5024028;28;20201;-89
2021/08/09 09:22:07;;;;;;;1.00;0.90;;;;;;;24.31;45.16;98538.88;5040197;28;20235;-89
2021/08/09 09:24:36;;;;;;;1.07;0.70;;;;;;;24.36;44.83;98537.22;5024624;28;20197;-90
2021/08/09 09:27:07;;;;;;;0.70;0.70;;;;;;;24.41;44.81;98533.16;5040447;28;20185;-88
2021/08/09 09:29:37;;;;;;;1.07;0.80;;;;;;;24.41;44.96;98531.31;5023974;28;20197;-87
2021/08/09 09:32:15;;;;;;;0.70;0.70;;;;;;;24.44;44.88;98530.09;5040211;28;20193;-90
2021/08/09 09:34:50;;;;;;;0.70;0.70;;;;;;;24.50;44.60;98521.28;5025878;28;20195;-90
2021/08/09 09:37:22;;;;;;;1.10;0.80;;;;;;;24.52;44.67;98521.91;5040417;28;20675;-90
2021/08/09 09:39:48;;;;;;;0.70;0.70;;;;;;;24.56;44.17;98531.19;5040086;28;20200;-89
2021/08/09 09:42:15;;;;;;;0.80;0.80;;;;;;;24.61;44.42;98534.06;5040059;28;20217;-90
2021/08/09 09:44:43;;;;;;;0.83;0.83;;;;;;;24.60;44.50;98532.44;5040138;28;20197;-89
2021/08/09 09:47:27;;;;;;;0.90;0.70;;;;;;;24.61;44.60;98528.72;5057607;28;20200;-89
2021/08/09 09:49:59;;;;;;;0.63;0.63;;;;;;;24.61;44.35;98549.28;5023710;28;20193;-89
2021/08/09 09:52:31;;;;;;;0.83;0.83;;;;;;;24.57;44.47;98548.84;5057761;28;20215;-91
2021/08/09 09:54:59;;;;;;;0.77;0.77;;;;;;;24.55;44.41;98545.56;5023488;28;20193;-89
2021/08/09 09:57:27;;;;;;;0.83;0.77;;;;;;;24.60;44.58;98553.78;5023513;28;20231;-89
2021/08/09 09:59:58;;;;;;;1.90;0.90;;;;;;;24.55;44.69;98556.22;5039626;28;20206;-89
2021/08/09 10:02:25;;;;;;;0.80;0.80;;;;;;;24.52;44.47;98559.25;5039620;28;20213;-88
2021/08/09 10:04:53;;;;;;;0.87;0.87;;;;;;;24.45;44.86;98566.41;5023217;28;20258;-89
2021/08/09 10:07:23;;;;;;;0.77;0.77;;;;;;;24.43;44.68;98568.47;5057205;28;20194;-88
2021/08/09 10:09:51;;;;;;;1.10;0.90;;;;;;;24.40;44.76;98571.53;5039476;28;20197;-89
2021/08/09 10:12:23;;;;;;;1.17;0.90;;;;;;;24.40;45.00;98568.88;5039675;28;20185;-88
2021/08/09 10:14:52;;;;;;;0.67;0.67;;;;;;;24.44;44.74;98575.44;5039660;28;20170;-88
2021/08/09 10:17:19;;;;;;;1.43;0.90;;;;;;;24.43;44.74;98579.13;5040481;28;20481;-88
2021/08/09 10:19:47;;;;;;;0.77;0.77;;;;;;;24.48;44.71;98585.53;5023097;28;20226;-90
2021/08/09 10:22:18;;;;;;;1.07;0.73;;;;;;;24.50;44.77;98577.31;5039193;28;20217;-89
2021/08/09 10:24:56;;;;;;;0.50;0.50;;;;;;;24.59;44.40;98577.97;5039375;28;20280;-89
2021/08/09 10:27:46;;;;;;;0.77;0.60;;;;;;;24.61;44.39;98568.75;5038438;28;20678;-88
2021/08/09 10:30:19;;;;;;;0.83;0.80;;;;;;;24.69;44.22;98573.09;5056680;28;20550;-88
2021/08/09 10:32:46;;;;;;;1.03;0.80;;;;;;;24.74;44.14;98569.84;5039105;28;20634;-88
2021/08/09 10:35:33;;;;;;;1.03;0.70;;;;;;;24.77;44.10;98566.81;5039488;28;20367;-90
2021/08/09 10:38:15;;;;;;;0.80;0.80;;;;;;;24.80;43.74;98563.72;5023258;28;20262;-89
2021/08/09 10:40:43;;;;;;;0.80;0.80;;;;;;;24.76;44.26;98565.16;5038826;28;20189;-90
2021/08/09 10:43:10;;;;;;;0.70;0.70;;;;;;;24.74;44.13;98572.50;5038677;28;20205;-88
2021/08/09 10:45:45;;;;;;;0.70;0.70;;;;;;;24.73;43.93;98579.69;5038891;28;20193;-88
2021/08/09 10:48:13;;;;;;;0.73;0.70;;;;;;;24.78;43.92;98576.44;5022427;28;20203;-89
2021/08/09 10:50:43;;;;;;;1.07;0.97;;;;;;;24.81;43.88;98576.03;5039064;28;20251;-89
2021/08/09 10:53:28;;;;;;;0.70;0.70;;;;;;;24.80;44.06;98579.75;5022297;28;20644;-90
2021/08/09 10:55:56;;;;;;;0.77;0.67;;;;;;;24.88;43.73;98576.06;5038813;28;20637;-88
2021/08/09 10:58:41;;;;;;;0.60;0.60;;;;;;;24.88;43.69;98581.41;5038773;28;20653;-89
2021/08/09 11:01:13;;;;;;;0.60;0.60;;;;;;;24.90;43.86;98585.53;5056549;28;20189;-88
2021/08/09 11:04:12;;;;;;;0.60;0.60;;;;;;;24.91;43.65;98579.19;5038611;28;20255;-89
2021/08/09 11:06:52;;;;;;;0.60;0.60;;;;;;;24.97;43.62;98579.38;5022368;28;20197;-91
2021/08/09 11:09:31;;;;;;;0.70;0.70;;;;;;;25.00;43.39;98571.81;5038397;28;20204;-87
2021/08/09 11:12:17;;;;;;;0.70;0.70;;;;;;;25.05;43.56;98571.22;5038572;28;20205;-87
2021/08/09 11:14:59;;;;;;;0.93;0.70;;;;;;;25.07;43.44;98556.63;5056003;28;20186;-89
2021/08/09 11:17:28;;;;;;;0.93;0.70;;;;;;;25.08;43.19;98560.13;5038369;28;20200;-90
2021/08/09 11:20:14;;;;;;;0.80;0.67;;;;;;;25.10;43.35;98566.09;5038262;28;20216;-88
2021/08/09 11:22:43;;;;;;;1.10;0.90;;;;;;;25.08;43.60;98565.47;5038372;28;20299;-89
2021/08/09 11:25:22;;;;;;;0.90;0.73;;;;;;;25.04;43.34;98565.03;5038261;28;20208;-90
2021/08/09 11:28:06;;;;;;;0.70;0.70;;;;;;;24.99;43.34;98567.50;5038489;28;20527;-92
2021/08/09 11:30:42;;;;;;;1.00;0.90;;;;;;;24.97;43.42;98574.88;5038320;28;20209;-89
2021/08/09 11:33:34;;;;;;;1.17;0.87;;;;;;;24.95;43.38;98571.59;5021964;28;20178;-91
2021/08/09 11:36:14;;;;;;;1.80;0.87;;;;;;;25.02;43.38;98571.63;5019867;28;20189;-91
2021/08/09 11:38:49;;;;;;;0.80;0.80;;;;;;;24.99;43.19;98566.66;5038262;28;20615;-89
2021/08/09 11:41:16;;;;;;;1.43;1.10;;;;;;;25.01;43.23;98556.59;5034289;28;20200;-89
2021/08/09 11:43:44;;;;;;;2.13;1.17;;;;;;;25.02;42.95;98568.94;5006599;28;20216;-91
2021/08/09 11:46:16;;;;;;;0.97;0.80;;;;;;;25.03;42.81;98554.56;5037609;28;20193;-89